< < Back
Terminal Aerodrome Forecast


Current Version              Previous Versions:   1  2  3  4  5  6  7  8  9  

Terminal Aerodrome Forecast

252
FTUS42 KILM 250500
TAFFLO
TAF
KFLO 250520Z 2506/2606 VRB03KT P6SM VCSH SCT050 BKN080
      TEMPO 2509/2512 4SM BR
     FM251400 01005KT P6SM VCSH SCT050 BKN100
     FM260000 VRB02KT P6SM FEW040=



Latest METAR

705
SAUS70 KWBC 251600 RRH
MTRFLO
METAR KFLO 251553Z 10006KT 10SM OVC010 24/21 A3005 RMK AO2 SLP174
T02440211


USA.gov is the U.S. government's official web portal to all federal, state and local government web resources and services.